sensor_id;sensor_type;location;lat;lon;timestamp;P1;durP1;ratioP1;P2;durP2;ratioP2
21392;SDS011;10857;52.228;21.026;2023-05-10T00:01:41;17.33;;;9.00;;
21392;SDS011;10857;52.228;21.026;2023-05-10T00:04:11;16.30;;;9.30;;
21392;SDS011;10857;52.228;21.026;2023-05-10T00:06:39;19.03;;;9.23;;
21392;SDS011;10857;52.228;21.026;2023-05-10T00:09:06;13.67;;;8.80;;
21392;SDS011;10857;52.228;21.026;2023-05-10T00:11:33;16.50;;;8.50;;
21392;SDS011;10857;52.228;21.026;2023-05-10T00:14:04;19.53;;;9.13;;
21392;SDS011;10857;52.228;21.026;2023-05-10T00:16:34;15.50;;;8.93;;
21392;SDS011;10857;52.228;21.026;2023-05-10T00:19:02;19.27;;;8.33;;
21392;SDS011;10857;52.228;21.026;2023-05-10T00:21:30;13.73;;;8.70;;
21392;SDS011;10857;52.228;21.026;2023-05-10T00:23:58;14.97;;;8.03;;
21392;SDS011;10857;52.228;21.026;2023-05-10T00:26:26;14.50;;;8.17;;
21392;SDS011;10857;52.228;21.026;2023-05-10T00:28:55;14.03;;;8.07;;
21392;SDS011;10857;52.228;21.026;2023-05-10T00:31:24;15.03;;;7.77;;
21392;SDS011;10857;52.228;21.026;2023-05-10T00:33:59;15.07;;;8.57;;
21392;SDS011;10857;52.228;21.026;2023-05-10T00:36:30;16.87;;;8.23;;
21392;SDS011;10857;52.228;21.026;2023-05-10T00:38:59;13.20;;;7.83;;
21392;SDS011;10857;52.228;21.026;2023-05-10T00:41:26;12.43;;;7.80;;
21392;SDS011;10857;52.228;21.026;2023-05-10T00:43:54;13.53;;;8.00;;
21392;SDS011;10857;52.228;21.026;2023-05-10T00:46:23;11.90;;;7.50;;
21392;SDS011;10857;52.228;21.026;2023-05-10T00:48:57;12.33;;;7.67;;
21392;SDS011;10857;52.228;21.026;2023-05-10T00:51:28;14.00;;;7.93;;
21392;SDS011;10857;52.228;21.026;2023-05-10T00:53:56;12.63;;;7.53;;
21392;SDS011;10857;52.228;21.026;2023-05-10T00:56:25;11.47;;;7.20;;
21392;SDS011;10857;52.228;21.026;2023-05-10T00:58:57;12.53;;;7.53;;
21392;SDS011;10857;52.228;21.026;2023-05-10T01:01:25;11.13;;;7.30;;
21392;SDS011;10857;52.228;21.026;2023-05-10T01:03:52;12.87;;;7.63;;
21392;SDS011;10857;52.228;21.026;2023-05-10T01:06:20;12.60;;;7.57;;
21392;SDS011;10857;52.228;21.026;2023-05-10T01:08:51;13.53;;;7.47;;
21392;SDS011;10857;52.228;21.026;2023-05-10T01:11:18;15.20;;;8.03;;
21392;SDS011;10857;52.228;21.026;2023-05-10T01:13:46;11.50;;;7.00;;
21392;SDS011;10857;52.228;21.026;2023-05-10T01:16:16;12.13;;;7.57;;
21392;SDS011;10857;52.228;21.026;2023-05-10T01:18:43;14.87;;;7.07;;
21392;SDS011;10857;52.228;21.026;2023-05-10T01:21:22;12.87;;;7.37;;
21392;SDS011;10857;52.228;21.026;2023-05-10T01:34:42;13.53;;;7.17;;
21392;SDS011;10857;52.228;21.026;2023-05-10T01:37:15;14.27;;;7.00;;
21392;SDS011;10857;52.228;21.026;2023-05-10T01:42:35;11.47;;;6.97;;
21392;SDS011;10857;52.228;21.026;2023-05-10T01:49:59;12.37;;;6.93;;
21392;SDS011;10857;52.228;21.026;2023-05-10T01:52:30;13.93;;;6.60;;
21392;SDS011;10857;52.228;21.026;2023-05-10T01:55:00;10.20;;;6.53;;
21392;SDS011;10857;52.228;21.026;2023-05-10T01:57:32;9.47;;;6.50;;
21392;SDS011;10857;52.228;21.026;2023-05-10T02:00:03;9.50;;;6.47;;
21392;SDS011;10857;52.228;21.026;2023-05-10T02:02:51;13.10;;;6.40;;
21392;SDS011;10857;52.228;21.026;2023-05-10T02:05:24;14.50;;;7.00;;
21392;SDS011;10857;52.228;21.026;2023-05-10T02:07:53;11.67;;;6.87;;
21392;SDS011;10857;52.228;21.026;2023-05-10T02:10:21;10.40;;;6.30;;
21392;SDS011;10857;52.228;21.026;2023-05-10T02:12:50;12.47;;;6.60;;
21392;SDS011;10857;52.228;21.026;2023-05-10T02:15:19;13.70;;;7.10;;
21392;SDS011;10857;52.228;21.026;2023-05-10T02:17:47;11.50;;;6.50;;
21392;SDS011;10857;52.228;21.026;2023-05-10T02:20:16;9.97;;;6.70;;
21392;SDS011;10857;52.228;21.026;2023-05-10T02:22:44;12.10;;;6.70;;
21392;SDS011;10857;52.228;21.026;2023-05-10T02:25:20;10.57;;;6.23;;
21392;SDS011;10857;52.228;21.026;2023-05-10T02:27:53;12.03;;;6.80;;
21392;SDS011;10857;52.228;21.026;2023-05-10T02:30:22;15.23;;;7.27;;
21392;SDS011;10857;52.228;21.026;2023-05-10T02:32:51;12.47;;;6.97;;
21392;SDS011;10857;52.228;21.026;2023-05-10T02:35:20;10.30;;;6.60;;
21392;SDS011;10857;52.228;21.026;2023-05-10T02:37:49;11.57;;;6.60;;
21392;SDS011;10857;52.228;21.026;2023-05-10T02:40:20;12.93;;;7.20;;
21392;SDS011;10857;52.228;21.026;2023-05-10T02:42:52;11.97;;;6.47;;
21392;SDS011;10857;52.228;21.026;2023-05-10T02:45:23;9.57;;;6.30;;
21392;SDS011;10857;52.228;21.026;2023-05-10T02:47:59;10.53;;;6.47;;
21392;SDS011;10857;52.228;21.026;2023-05-10T02:50:27;11.70;;;6.60;;
21392;SDS011;10857;52.228;21.026;2023-05-10T02:53:04;10.47;;;6.67;;
21392;SDS011;10857;52.228;21.026;2023-05-10T02:55:35;12.33;;;6.60;;
21392;SDS011;10857;52.228;21.026;2023-05-10T02:58:04;12.40;;;6.27;;
21392;SDS011;10857;52.228;21.026;2023-05-10T03:00:31;11.40;;;6.60;;
21392;SDS011;10857;52.228;21.026;2023-05-10T03:02:59;12.93;;;7.10;;
21392;SDS011;10857;52.228;21.026;2023-05-10T03:05:27;13.10;;;6.37;;
21392;SDS011;10857;52.228;21.026;2023-05-10T03:07:58;11.17;;;6.57;;
21392;SDS011;10857;52.228;21.026;2023-05-10T03:10:30;11.93;;;6.00;;
21392;SDS011;10857;52.228;21.026;2023-05-10T03:13:11;9.63;;;6.50;;
21392;SDS011;10857;52.228;21.026;2023-05-10T03:18:23;10.13;;;6.30;;
21392;SDS011;10857;52.228;21.026;2023-05-10T03:20:57;10.73;;;6.43;;
21392;SDS011;10857;52.228;21.026;2023-05-10T03:23:35;12.07;;;6.60;;
21392;SDS011;10857;52.228;21.026;2023-05-10T03:26:04;12.10;;;6.70;;
21392;SDS011;10857;52.228;21.026;2023-05-10T03:28:33;13.17;;;6.40;;
21392;SDS011;10857;52.228;21.026;2023-05-10T03:31:03;12.67;;;6.40;;
21392;SDS011;10857;52.228;21.026;2023-05-10T03:33:33;10.90;;;6.63;;
21392;SDS011;10857;52.228;21.026;2023-05-10T03:36:01;12.67;;;6.73;;
21392;SDS011;10857;52.228;21.026;2023-05-10T03:38:28;10.43;;;6.37;;
21392;SDS011;10857;52.228;21.026;2023-05-10T03:40:56;11.43;;;6.10;;
21392;SDS011;10857;52.228;21.026;2023-05-10T03:43:23;15.10;;;6.47;;
21392;SDS011;10857;52.228;21.026;2023-05-10T03:45:52;10.77;;;6.40;;
21392;SDS011;10857;52.228;21.026;2023-05-10T03:48:19;13.53;;;6.73;;
21392;SDS011;10857;52.228;21.026;2023-05-10T03:50:46;11.53;;;6.30;;
21392;SDS011;10857;52.228;21.026;2023-05-10T03:53:15;13.43;;;7.10;;
21392;SDS011;10857;52.228;21.026;2023-05-10T03:55:46;13.03;;;6.90;;
21392;SDS011;10857;52.228;21.026;2023-05-10T03:58:14;13.40;;;6.57;;
21392;SDS011;10857;52.228;21.026;2023-05-10T04:00:42;10.70;;;6.10;;
21392;SDS011;10857;52.228;21.026;2023-05-10T04:03:14;10.03;;;6.50;;
21392;SDS011;10857;52.228;21.026;2023-05-10T04:05:42;12.70;;;6.20;;
21392;SDS011;10857;52.228;21.026;2023-05-10T04:08:10;10.23;;;6.13;;
21392;SDS011;10857;52.228;21.026;2023-05-10T04:10:38;11.80;;;6.47;;
21392;SDS011;10857;52.228;21.026;2023-05-10T04:13:05;11.60;;;6.03;;
21392;SDS011;10857;52.228;21.026;2023-05-10T04:15:33;11.40;;;6.27;;
21392;SDS011;10857;52.228;21.026;2023-05-10T04:18:01;11.80;;;6.40;;
21392;SDS011;10857;52.228;21.026;2023-05-10T04:20:31;13.10;;;6.87;;
21392;SDS011;10857;52.228;21.026;2023-05-10T04:22:59;13.33;;;6.13;;
21392;SDS011;10857;52.228;21.026;2023-05-10T04:25:26;12.03;;;5.90;;
21392;SDS011;10857;52.228;21.026;2023-05-10T04:27:55;10.87;;;5.93;;
21392;SDS011;10857;52.228;21.026;2023-05-10T04:30:23;12.60;;;6.53;;
21392;SDS011;10857;52.228;21.026;2023-05-10T04:32:51;10.80;;;6.20;;
21392;SDS011;10857;52.228;21.026;2023-05-10T04:35:18;10.60;;;6.20;;
21392;SDS011;10857;52.228;21.026;2023-05-10T04:37:52;10.43;;;6.00;;
21392;SDS011;10857;52.228;21.026;2023-05-10T04:40:20;11.93;;;6.13;;
21392;SDS011;10857;52.228;21.026;2023-05-10T04:42:48;15.40;;;6.20;;
21392;SDS011;10857;52.228;21.026;2023-05-10T04:45:16;9.43;;;5.57;;
21392;SDS011;10857;52.228;21.026;2023-05-10T04:47:45;12.03;;;6.57;;
21392;SDS011;10857;52.228;21.026;2023-05-10T04:50:12;11.40;;;6.33;;
21392;SDS011;10857;52.228;21.026;2023-05-10T04:52:41;12.57;;;6.53;;
21392;SDS011;10857;52.228;21.026;2023-05-10T04:55:09;14.73;;;6.50;;
21392;SDS011;10857;52.228;21.026;2023-05-10T04:57:39;13.83;;;6.50;;
21392;SDS011;10857;52.228;21.026;2023-05-10T05:00:07;12.73;;;6.17;;
21392;SDS011;10857;52.228;21.026;2023-05-10T05:02:35;18.07;;;6.13;;
21392;SDS011;10857;52.228;21.026;2023-05-10T05:05:06;12.30;;;6.40;;
21392;SDS011;10857;52.228;21.026;2023-05-10T05:07:35;10.60;;;6.27;;
21392;SDS011;10857;52.228;21.026;2023-05-10T05:10:07;12.95;;;6.50;;
21392;SDS011;10857;52.228;21.026;2023-05-10T05:12:34;11.30;;;5.87;;
21392;SDS011;10857;52.228;21.026;2023-05-10T05:15:04;12.73;;;6.07;;
21392;SDS011;10857;52.228;21.026;2023-05-10T05:17:35;12.03;;;6.27;;
21392;SDS011;10857;52.228;21.026;2023-05-10T05:20:02;14.93;;;5.97;;
21392;SDS011;10857;52.228;21.026;2023-05-10T05:22:30;13.10;;;5.93;;
21392;SDS011;10857;52.228;21.026;2023-05-10T05:24:57;14.50;;;7.33;;
21392;SDS011;10857;52.228;21.026;2023-05-10T05:27:24;15.93;;;6.20;;
21392;SDS011;10857;52.228;21.026;2023-05-10T05:29:54;14.53;;;5.57;;
21392;SDS011;10857;52.228;21.026;2023-05-10T05:32:22;14.47;;;6.10;;
21392;SDS011;10857;52.228;21.026;2023-05-10T05:34:50;17.13;;;5.70;;
21392;SDS011;10857;52.228;21.026;2023-05-10T05:37:19;13.03;;;6.03;;
21392;SDS011;10857;52.228;21.026;2023-05-10T05:39:47;15.23;;;5.60;;
21392;SDS011;10857;52.228;21.026;2023-05-10T05:42:15;14.30;;;5.57;;
21392;SDS011;10857;52.228;21.026;2023-05-10T05:44:45;12.57;;;5.40;;
21392;SDS011;10857;52.228;21.026;2023-05-10T05:47:12;9.43;;;5.17;;
21392;SDS011;10857;52.228;21.026;2023-05-10T05:49:40;13.07;;;5.80;;
21392;SDS011;10857;52.228;21.026;2023-05-10T05:52:07;11.37;;;5.17;;
21392;SDS011;10857;52.228;21.026;2023-05-10T05:54:36;10.33;;;5.20;;
21392;SDS011;10857;52.228;21.026;2023-05-10T05:57:03;18.20;;;5.43;;
21392;SDS011;10857;52.228;21.026;2023-05-10T05:59:31;13.80;;;5.57;;
21392;SDS011;10857;52.228;21.026;2023-05-10T06:01:58;10.10;;;5.20;;
21392;SDS011;10857;52.228;21.026;2023-05-10T06:04:28;14.03;;;5.20;;
21392;SDS011;10857;52.228;21.026;2023-05-10T06:06:55;13.73;;;5.23;;
21392;SDS011;10857;52.228;21.026;2023-05-10T06:09:26;11.07;;;5.20;;
21392;SDS011;10857;52.228;21.026;2023-05-10T06:11:59;8.90;;;5.33;;
21392;SDS011;10857;52.228;21.026;2023-05-10T06:14:26;12.48;;;4.95;;
21392;SDS011;10857;52.228;21.026;2023-05-10T06:16:54;10.07;;;5.00;;
21392;SDS011;10857;52.228;21.026;2023-05-10T06:19:22;14.18;;;4.80;;
21392;SDS011;10857;52.228;21.026;2023-05-10T06:21:51;12.40;;;5.17;;
21392;SDS011;10857;52.228;21.026;2023-05-10T06:24:20;10.02;;;5.00;;
21392;SDS011;10857;52.228;21.026;2023-05-10T06:26:49;10.18;;;5.10;;
21392;SDS011;10857;52.228;21.026;2023-05-10T06:29:18;11.00;;;4.68;;
21392;SDS011;10857;52.228;21.026;2023-05-10T06:31:47;11.60;;;4.68;;
21392;SDS011;10857;52.228;21.026;2023-05-10T06:34:15;12.27;;;4.75;;
21392;SDS011;10857;52.228;21.026;2023-05-10T06:36:43;7.53;;;4.28;;
21392;SDS011;10857;52.228;21.026;2023-05-10T06:39:13;13.15;;;4.50;;
21392;SDS011;10857;52.228;21.026;2023-05-10T06:41:41;8.95;;;4.38;;
21392;SDS011;10857;52.228;21.026;2023-05-10T06:44:11;9.93;;;4.60;;
21392;SDS011;10857;52.228;21.026;2023-05-10T06:46:39;11.13;;;4.72;;
21392;SDS011;10857;52.228;21.026;2023-05-10T06:49:09;11.07;;;4.80;;
21392;SDS011;10857;52.228;21.026;2023-05-10T06:51:37;10.38;;;4.50;;
21392;SDS011;10857;52.228;21.026;2023-05-10T06:54:07;7.93;;;3.67;;
21392;SDS011;10857;52.228;21.026;2023-05-10T06:56:34;7.35;;;3.85;;
21392;SDS011;10857;52.228;21.026;2023-05-10T06:59:06;11.73;;;4.20;;
21392;SDS011;10857;52.228;21.026;2023-05-10T07:01:35;6.38;;;4.00;;
21392;SDS011;10857;52.228;21.026;2023-05-10T07:04:03;7.60;;;4.18;;
21392;SDS011;10857;52.228;21.026;2023-05-10T07:06:32;8.43;;;3.97;;
21392;SDS011;10857;52.228;21.026;2023-05-10T07:09:00;8.30;;;3.70;;
21392;SDS011;10857;52.228;21.026;2023-05-10T07:11:28;9.63;;;3.80;;
21392;SDS011;10857;52.228;21.026;2023-05-10T07:13:56;7.32;;;3.35;;
21392;SDS011;10857;52.228;21.026;2023-05-10T07:16:25;5.10;;;3.80;;
21392;SDS011;10857;52.228;21.026;2023-05-10T07:18:54;6.18;;;3.25;;
21392;SDS011;10857;52.228;21.026;2023-05-10T07:21:21;8.93;;;3.72;;
21392;SDS011;10857;52.228;21.026;2023-05-10T07:23:50;9.40;;;3.42;;
21392;SDS011;10857;52.228;21.026;2023-05-10T07:26:18;5.57;;;3.60;;
21392;SDS011;10857;52.228;21.026;2023-05-10T07:28:48;7.47;;;3.53;;
21392;SDS011;10857;52.228;21.026;2023-05-10T07:31:16;5.35;;;3.10;;
21392;SDS011;10857;52.228;21.026;2023-05-10T07:33:43;6.35;;;3.90;;
21392;SDS011;10857;52.228;21.026;2023-05-10T07:36:11;7.32;;;3.53;;
21392;SDS011;10857;52.228;21.026;2023-05-10T07:38:39;7.22;;;3.50;;
21392;SDS011;10857;52.228;21.026;2023-05-10T07:41:09;10.00;;;3.83;;
21392;SDS011;10857;52.228;21.026;2023-05-10T07:43:36;8.18;;;3.80;;
21392;SDS011;10857;52.228;21.026;2023-05-10T07:46:04;7.88;;;3.38;;
21392;SDS011;10857;52.228;21.026;2023-05-10T07:48:32;5.32;;;3.13;;
21392;SDS011;10857;52.228;21.026;2023-05-10T07:51:00;8.75;;;3.13;;
21392;SDS011;10857;52.228;21.026;2023-05-10T07:53:31;7.25;;;3.38;;
21392;SDS011;10857;52.228;21.026;2023-05-10T07:56:19;7.68;;;2.95;;
21392;SDS011;10857;52.228;21.026;2023-05-10T07:58:47;7.25;;;2.90;;
21392;SDS011;10857;52.228;21.026;2023-05-10T08:01:15;9.70;;;3.08;;
21392;SDS011;10857;52.228;21.026;2023-05-10T08:03:42;7.35;;;3.00;;
21392;SDS011;10857;52.228;21.026;2023-05-10T08:06:10;7.30;;;2.97;;
21392;SDS011;10857;52.228;21.026;2023-05-10T08:08:37;7.95;;;3.10;;
21392;SDS011;10857;52.228;21.026;2023-05-10T08:11:05;5.55;;;2.75;;
21392;SDS011;10857;52.228;21.026;2023-05-10T08:13:32;4.95;;;2.95;;
21392;SDS011;10857;52.228;21.026;2023-05-10T08:16:00;9.73;;;2.83;;
21392;SDS011;10857;52.228;21.026;2023-05-10T08:18:28;3.58;;;2.60;;
21392;SDS011;10857;52.228;21.026;2023-05-10T08:20:56;8.00;;;3.08;;
21392;SDS011;10857;52.228;21.026;2023-05-10T08:23:23;7.63;;;2.95;;
21392;SDS011;10857;52.228;21.026;2023-05-10T08:25:51;6.93;;;2.63;;
21392;SDS011;10857;52.228;21.026;2023-05-10T08:28:18;6.90;;;3.15;;
21392;SDS011;10857;52.228;21.026;2023-05-10T08:30:45;7.93;;;2.70;;
21392;SDS011;10857;52.228;21.026;2023-05-10T08:33:13;4.95;;;2.70;;
21392;SDS011;10857;52.228;21.026;2023-05-10T08:35:41;11.32;;;3.22;;
21392;SDS011;10857;52.228;21.026;2023-05-10T08:38:08;6.20;;;2.88;;
21392;SDS011;10857;52.228;21.026;2023-05-10T08:40:36;6.28;;;2.97;;
21392;SDS011;10857;52.228;21.026;2023-05-10T08:43:05;7.55;;;2.83;;
21392;SDS011;10857;52.228;21.026;2023-05-10T08:45:37;5.50;;;3.00;;
21392;SDS011;10857;52.228;21.026;2023-05-10T08:48:06;8.23;;;2.97;;
21392;SDS011;10857;52.228;21.026;2023-05-10T08:50:38;7.10;;;3.10;;
21392;SDS011;10857;52.228;21.026;2023-05-10T08:53:06;13.73;;;3.38;;
21392;SDS011;10857;52.228;21.026;2023-05-10T08:55:36;6.25;;;2.85;;
21392;SDS011;10857;52.228;21.026;2023-05-10T08:58:05;8.48;;;3.05;;
21392;SDS011;10857;52.228;21.026;2023-05-10T09:00:33;11.88;;;3.20;;
21392;SDS011;10857;52.228;21.026;2023-05-10T09:03:01;9.25;;;2.75;;
21392;SDS011;10857;52.228;21.026;2023-05-10T09:05:29;5.97;;;2.95;;
21392;SDS011;10857;52.228;21.026;2023-05-10T09:07:56;4.07;;;2.80;;
21392;SDS011;10857;52.228;21.026;2023-05-10T09:10:25;7.10;;;3.38;;
21392;SDS011;10857;52.228;21.026;2023-05-10T09:12:56;7.00;;;2.78;;
21392;SDS011;10857;52.228;21.026;2023-05-10T09:15:24;6.18;;;2.60;;
21392;SDS011;10857;52.228;21.026;2023-05-10T09:17:54;6.72;;;2.90;;
21392;SDS011;10857;52.228;21.026;2023-05-10T09:20:22;8.35;;;2.80;;
21392;SDS011;10857;52.228;21.026;2023-05-10T09:22:50;4.78;;;2.55;;
21392;SDS011;10857;52.228;21.026;2023-05-10T09:25:17;3.65;;;2.45;;
21392;SDS011;10857;52.228;21.026;2023-05-10T09:27:47;7.10;;;2.83;;
21392;SDS011;10857;52.228;21.026;2023-05-10T09:30:25;9.07;;;3.15;;
21392;SDS011;10857;52.228;21.026;2023-05-10T09:32:53;4.50;;;2.85;;
21392;SDS011;10857;52.228;21.026;2023-05-10T09:35:22;5.90;;;2.90;;
21392;SDS011;10857;52.228;21.026;2023-05-10T09:37:56;5.60;;;2.80;;
21392;SDS011;10857;52.228;21.026;2023-05-10T09:40:25;4.28;;;2.72;;
21392;SDS011;10857;52.228;21.026;2023-05-10T09:45:21;5.00;;;3.20;;
21392;SDS011;10857;52.228;21.026;2023-05-10T09:47:50;5.05;;;3.15;;
21392;SDS011;10857;52.228;21.026;2023-05-10T09:50:18;7.35;;;3.10;;
21392;SDS011;10857;52.228;21.026;2023-05-10T09:52:51;7.45;;;2.97;;
21392;SDS011;10857;52.228;21.026;2023-05-10T09:55:19;6.45;;;2.67;;
21392;SDS011;10857;52.228;21.026;2023-05-10T09:57:48;5.95;;;2.90;;
21392;SDS011;10857;52.228;21.026;2023-05-10T10:00:19;7.45;;;2.90;;
21392;SDS011;10857;52.228;21.026;2023-05-10T10:02:48;15.18;;;4.80;;
21392;SDS011;10857;52.228;21.026;2023-05-10T10:05:30;9.30;;;3.20;;
21392;SDS011;10857;52.228;21.026;2023-05-10T10:07:58;5.85;;;2.67;;
21392;SDS011;10857;52.228;21.026;2023-05-10T10:10:27;7.38;;;2.92;;
21392;SDS011;10857;52.228;21.026;2023-05-10T10:12:56;4.10;;;2.85;;
21392;SDS011;10857;52.228;21.026;2023-05-10T10:15:24;4.97;;;3.08;;
21392;SDS011;10857;52.228;21.026;2023-05-10T10:17:52;8.50;;;2.80;;
21392;SDS011;10857;52.228;21.026;2023-05-10T10:20:20;8.68;;;2.80;;
21392;SDS011;10857;52.228;21.026;2023-05-10T10:22:50;6.78;;;2.80;;
21392;SDS011;10857;52.228;21.026;2023-05-10T10:25:18;7.00;;;3.00;;
21392;SDS011;10857;52.228;21.026;2023-05-10T10:35:33;3.95;;;3.20;;
21392;SDS011;10857;52.228;21.026;2023-05-10T10:38:01;7.30;;;2.97;;
21392;SDS011;10857;52.228;21.026;2023-05-10T10:40:30;4.97;;;2.90;;
21392;SDS011;10857;52.228;21.026;2023-05-10T10:43:22;5.50;;;2.85;;
21392;SDS011;10857;52.228;21.026;2023-05-10T10:46:09;8.13;;;3.25;;
21392;SDS011;10857;52.228;21.026;2023-05-10T10:48:37;7.43;;;3.03;;
21392;SDS011;10857;52.228;21.026;2023-05-10T10:51:09;8.02;;;2.58;;
21392;SDS011;10857;52.228;21.026;2023-05-10T10:53:39;4.30;;;2.83;;
21392;SDS011;10857;52.228;21.026;2023-05-10T10:56:09;8.13;;;2.90;;
21392;SDS011;10857;52.228;21.026;2023-05-10T10:58:37;4.85;;;2.70;;
21392;SDS011;10857;52.228;21.026;2023-05-10T11:01:15;8.45;;;2.47;;
21392;SDS011;10857;52.228;21.026;2023-05-10T11:06:31;7.63;;;2.70;;
21392;SDS011;10857;52.228;21.026;2023-05-10T11:09:10;6.50;;;2.92;;
21392;SDS011;10857;52.228;21.026;2023-05-10T11:11:56;7.82;;;2.95;;
21392;SDS011;10857;52.228;21.026;2023-05-10T11:14:31;9.13;;;2.95;;
21392;SDS011;10857;52.228;21.026;2023-05-10T11:17:00;5.28;;;2.70;;
21392;SDS011;10857;52.228;21.026;2023-05-10T11:19:28;5.55;;;2.90;;
21392;SDS011;10857;52.228;21.026;2023-05-10T11:24:30;7.35;;;2.88;;
21392;SDS011;10857;52.228;21.026;2023-05-10T11:26:59;9.45;;;2.80;;
21392;SDS011;10857;52.228;21.026;2023-05-10T11:29:28;4.20;;;2.78;;
21392;SDS011;10857;52.228;21.026;2023-05-10T11:31:57;4.60;;;3.28;;
21392;SDS011;10857;52.228;21.026;2023-05-10T11:34:31;9.18;;;3.65;;
21392;SDS011;10857;52.228;21.026;2023-05-10T11:37:02;9.73;;;3.00;;
21392;SDS011;10857;52.228;21.026;2023-05-10T11:39:30;6.13;;;2.80;;
21392;SDS011;10857;52.228;21.026;2023-05-10T11:41:59;6.55;;;3.10;;
21392;SDS011;10857;52.228;21.026;2023-05-10T11:44:30;7.78;;;3.08;;
21392;SDS011;10857;52.228;21.026;2023-05-10T11:46:59;6.07;;;2.88;;
21392;SDS011;10857;52.228;21.026;2023-05-10T11:49:27;17.90;;;3.10;;
21392;SDS011;10857;52.228;21.026;2023-05-10T11:52:04;5.68;;;2.78;;
21392;SDS011;10857;52.228;21.026;2023-05-10T11:54:32;4.38;;;2.80;;
21392;SDS011;10857;52.228;21.026;2023-05-10T11:57:02;9.30;;;3.42;;
21392;SDS011;10857;52.228;21.026;2023-05-10T11:59:29;9.37;;;3.17;;
21392;SDS011;10857;52.228;21.026;2023-05-10T12:01:57;6.75;;;2.85;;
21392;SDS011;10857;52.228;21.026;2023-05-10T12:04:24;9.13;;;3.00;;
21392;SDS011;10857;52.228;21.026;2023-05-10T12:06:54;10.68;;;3.42;;
21392;SDS011;10857;52.228;21.026;2023-05-10T12:09:23;9.90;;;3.17;;
21392;SDS011;10857;52.228;21.026;2023-05-10T12:12:08;11.30;;;3.15;;
21392;SDS011;10857;52.228;21.026;2023-05-10T12:14:36;8.30;;;2.92;;
21392;SDS011;10857;52.228;21.026;2023-05-10T12:17:03;6.93;;;2.75;;
21392;SDS011;10857;52.228;21.026;2023-05-10T12:19:37;5.82;;;2.78;;
21392;SDS011;10857;52.228;21.026;2023-05-10T12:22:10;8.57;;;2.92;;
21392;SDS011;10857;52.228;21.026;2023-05-10T12:24:38;7.43;;;2.90;;
21392;SDS011;10857;52.228;21.026;2023-05-10T12:27:08;6.60;;;2.80;;
21392;SDS011;10857;52.228;21.026;2023-05-10T12:29:41;6.72;;;3.20;;
21392;SDS011;10857;52.228;21.026;2023-05-10T12:32:12;10.32;;;3.22;;
21392;SDS011;10857;52.228;21.026;2023-05-10T12:34:43;7.50;;;3.22;;
21392;SDS011;10857;52.228;21.026;2023-05-10T12:37:14;7.45;;;2.95;;
21392;SDS011;10857;52.228;21.026;2023-05-10T12:39:44;8.80;;;3.03;;
21392;SDS011;10857;52.228;21.026;2023-05-10T12:42:12;3.58;;;2.78;;
21392;SDS011;10857;52.228;21.026;2023-05-10T12:44:41;10.32;;;3.17;;
21392;SDS011;10857;52.228;21.026;2023-05-10T12:47:08;9.82;;;3.55;;
21392;SDS011;10857;52.228;21.026;2023-05-10T12:49:35;8.80;;;2.80;;
21392;SDS011;10857;52.228;21.026;2023-05-10T12:52:03;5.32;;;2.63;;
21392;SDS011;10857;52.228;21.026;2023-05-10T12:54:32;10.80;;;3.22;;
21392;SDS011;10857;52.228;21.026;2023-05-10T12:57:00;7.78;;;2.72;;
21392;SDS011;10857;52.228;21.026;2023-05-10T12:59:28;5.50;;;2.92;;
21392;SDS011;10857;52.228;21.026;2023-05-10T13:01:58;7.65;;;3.75;;
21392;SDS011;10857;52.228;21.026;2023-05-10T13:04:25;11.70;;;3.63;;
21392;SDS011;10857;52.228;21.026;2023-05-10T13:06:54;14.38;;;3.60;;
21392;SDS011;10857;52.228;21.026;2023-05-10T13:09:26;8.50;;;2.70;;
21392;SDS011;10857;52.228;21.026;2023-05-10T13:11:56;8.93;;;3.75;;
21392;SDS011;10857;52.228;21.026;2023-05-10T13:14:24;7.10;;;3.15;;
21392;SDS011;10857;52.228;21.026;2023-05-10T13:16:56;5.05;;;3.00;;
21392;SDS011;10857;52.228;21.026;2023-05-10T13:19:25;6.20;;;3.00;;
21392;SDS011;10857;52.228;21.026;2023-05-10T13:21:53;7.25;;;3.50;;
21392;SDS011;10857;52.228;21.026;2023-05-10T13:24:21;5.10;;;2.80;;
21392;SDS011;10857;52.228;21.026;2023-05-10T13:26:49;6.78;;;2.97;;
21392;SDS011;10857;52.228;21.026;2023-05-10T13:29:17;7.35;;;3.13;;
21392;SDS011;10857;52.228;21.026;2023-05-10T13:31:45;5.68;;;2.78;;
21392;SDS011;10857;52.228;21.026;2023-05-10T13:34:14;7.00;;;2.88;;
21392;SDS011;10857;52.228;21.026;2023-05-10T13:36:42;9.23;;;3.88;;
21392;SDS011;10857;52.228;21.026;2023-05-10T13:39:09;4.22;;;2.83;;
21392;SDS011;10857;52.228;21.026;2023-05-10T13:41:37;6.38;;;4.35;;
21392;SDS011;10857;52.228;21.026;2023-05-10T13:44:07;5.95;;;3.10;;
21392;SDS011;10857;52.228;21.026;2023-05-10T13:46:34;7.30;;;2.85;;
21392;SDS011;10857;52.228;21.026;2023-05-10T13:49:02;4.45;;;3.40;;
21392;SDS011;10857;52.228;21.026;2023-05-10T13:51:36;7.43;;;2.70;;
21392;SDS011;10857;52.228;21.026;2023-05-10T13:54:04;6.47;;;2.75;;
21392;SDS011;10857;52.228;21.026;2023-05-10T13:56:31;3.80;;;2.88;;
21392;SDS011;10857;52.228;21.026;2023-05-10T13:58:59;7.35;;;2.80;;
21392;SDS011;10857;52.228;21.026;2023-05-10T14:01:26;10.00;;;3.10;;
21392;SDS011;10857;52.228;21.026;2023-05-10T14:03:56;7.22;;;2.90;;
21392;SDS011;10857;52.228;21.026;2023-05-10T14:06:26;4.30;;;2.72;;
21392;SDS011;10857;52.228;21.026;2023-05-10T14:08:56;3.95;;;2.60;;
21392;SDS011;10857;52.228;21.026;2023-05-10T14:11:25;6.00;;;2.70;;
21392;SDS011;10857;52.228;21.026;2023-05-10T14:13:54;5.20;;;2.80;;
21392;SDS011;10857;52.228;21.026;2023-05-10T14:16:22;8.02;;;2.92;;
21392;SDS011;10857;52.228;21.026;2023-05-10T14:18:52;7.78;;;2.80;;
21392;SDS011;10857;52.228;21.026;2023-05-10T14:21:22;5.20;;;3.08;;
21392;SDS011;10857;52.228;21.026;2023-05-10T14:24:03;6.45;;;2.50;;
21392;SDS011;10857;52.228;21.026;2023-05-10T14:26:31;5.50;;;2.83;;
21392;SDS011;10857;52.228;21.026;2023-05-10T14:28:59;7.95;;;2.80;;
21392;SDS011;10857;52.228;21.026;2023-05-10T14:31:27;8.85;;;3.17;;
21392;SDS011;10857;52.228;21.026;2023-05-10T14:33:56;6.35;;;2.85;;
21392;SDS011;10857;52.228;21.026;2023-05-10T14:36:26;6.03;;;2.83;;
21392;SDS011;10857;52.228;21.026;2023-05-10T14:38:54;5.00;;;2.60;;
21392;SDS011;10857;52.228;21.026;2023-05-10T14:41:22;7.55;;;2.80;;
21392;SDS011;10857;52.228;21.026;2023-05-10T14:43:49;7.05;;;3.03;;
21392;SDS011;10857;52.228;21.026;2023-05-10T14:46:17;5.32;;;2.80;;
21392;SDS011;10857;52.228;21.026;2023-05-10T14:48:46;7.82;;;2.97;;
21392;SDS011;10857;52.228;21.026;2023-05-10T14:51:13;5.50;;;2.80;;
21392;SDS011;10857;52.228;21.026;2023-05-10T14:53:42;5.45;;;2.92;;
21392;SDS011;10857;52.228;21.026;2023-05-10T14:56:09;7.13;;;3.65;;
21392;SDS011;10857;52.228;21.026;2023-05-10T14:58:37;8.05;;;2.90;;
21392;SDS011;10857;52.228;21.026;2023-05-10T15:01:05;10.50;;;2.80;;
21392;SDS011;10857;52.228;21.026;2023-05-10T15:03:32;5.38;;;2.90;;
21392;SDS011;10857;52.228;21.026;2023-05-10T15:06:02;8.52;;;4.25;;
21392;SDS011;10857;52.228;21.026;2023-05-10T15:08:29;8.10;;;2.90;;
21392;SDS011;10857;52.228;21.026;2023-05-10T15:10:57;7.25;;;3.10;;
21392;SDS011;10857;52.228;21.026;2023-05-10T15:13:25;6.22;;;2.83;;
21392;SDS011;10857;52.228;21.026;2023-05-10T15:15:53;5.97;;;2.72;;
21392;SDS011;10857;52.228;21.026;2023-05-10T15:18:26;6.45;;;2.95;;